createdAt,value
2022-09-15T00:00:00.277Z,18.67
2022-09-15T00:01:00.289Z,18.67
2022-09-15T00:02:00.357Z,18.67
2022-09-15T00:03:00.387Z,18.67
2022-09-15T00:04:00.226Z,18.69
2022-09-15T00:05:00.248Z,18.69
2022-09-15T00:06:00.208Z,18.65
2022-09-15T00:07:00.190Z,18.63
2022-09-15T00:08:00.175Z,18.66
2022-09-15T00:09:00.220Z,18.65
2022-09-15T00:10:00.175Z,18.69
2022-09-15T00:11:00.208Z,18.69
2022-09-15T00:12:00.140Z,18.69
2022-09-15T00:13:00.131Z,18.70
2022-09-15T00:14:00.105Z,18.72
2022-09-15T00:15:00.148Z,18.73
2022-09-15T00:16:00.090Z,18.70
2022-09-15T00:17:00.162Z,18.70
2022-09-15T00:18:00.077Z,18.67
2022-09-15T00:19:00.057Z,18.67
2022-09-15T00:20:00.014Z,18.69
2022-09-15T00:21:00.013Z,18.66
2022-09-15T00:22:00.021Z,18.66
2022-09-15T00:23:00.002Z,18.66
2022-09-15T00:23:59.966Z,18.65
2022-09-15T00:24:59.947Z,18.65
2022-09-15T00:25:59.947Z,18.65
2022-09-15T00:27:00.054Z,18.66
2022-09-15T00:27:59.911Z,18.65
2022-09-15T00:28:59.936Z,18.66
2022-09-15T00:29:59.886Z,18.65
2022-09-15T00:30:59.909Z,18.67
2022-09-15T00:31:59.864Z,18.66
2022-09-15T00:32:59.838Z,18.66
2022-09-15T00:33:59.851Z,18.65
2022-09-15T00:34:59.825Z,18.65
2022-09-15T00:35:59.834Z,18.65
2022-09-15T00:36:59.798Z,18.63
2022-09-15T00:37:59.784Z,18.65
2022-09-15T00:38:59.776Z,18.65
2022-09-15T00:39:59.825Z,18.65
2022-09-15T00:40:59.756Z,18.62
2022-09-15T00:41:59.726Z,18.63
2022-09-15T00:42:59.720Z,18.63
2022-09-15T00:43:59.694Z,18.63
2022-09-15T00:44:59.723Z,18.63
2022-09-15T00:45:59.727Z,18.65
2022-09-15T00:47:18.366Z,18.63
2022-09-15T00:47:59.655Z,18.63
2022-09-15T00:48:59.619Z,18.63
2022-09-15T00:49:59.666Z,18.63
2022-09-15T00:50:59.629Z,18.62
2022-09-15T00:51:59.615Z,18.63
2022-09-15T00:52:59.714Z,18.63
2022-09-15T00:53:59.568Z,18.62
2022-09-15T00:54:59.546Z,18.63
2022-09-15T00:55:59.549Z,18.62
2022-09-15T00:56:59.536Z,18.60
2022-09-15T00:57:59.593Z,18.58
2022-09-15T00:58:59.495Z,18.58
2022-09-15T00:59:59.488Z,18.58
2022-09-15T01:00:59.521Z,18.57
2022-09-15T01:01:59.503Z,18.57
2022-09-15T01:02:59.480Z,18.57
2022-09-15T01:03:59.428Z,18.58
2022-09-15T01:04:59.423Z,18.58
2022-09-15T01:05:59.403Z,18.54
2022-09-15T01:06:59.394Z,18.54
2022-09-15T01:07:59.373Z,18.54
2022-09-15T01:08:59.386Z,18.52
2022-09-15T01:09:59.352Z,18.52
2022-09-15T01:10:59.338Z,18.54
2022-09-15T01:11:59.329Z,18.55
2022-09-15T01:12:59.314Z,18.54
2022-09-15T01:13:59.335Z,18.52
2022-09-15T01:14:59.284Z,18.51
2022-09-15T01:15:59.301Z,18.51
2022-09-15T01:16:59.256Z,18.51
2022-09-15T01:17:59.248Z,18.52
2022-09-15T01:18:59.226Z,18.54
2022-09-15T01:19:59.251Z,18.52
2022-09-15T01:20:59.197Z,18.57
2022-09-15T01:21:59.225Z,18.55
2022-09-15T01:22:59.199Z,18.57
2022-09-15T01:23:59.171Z,18.57
2022-09-15T01:24:59.138Z,18.54
2022-09-15T01:25:59.136Z,18.54
2022-09-15T01:26:59.142Z,18.52
2022-09-15T01:27:59.138Z,18.55
2022-09-15T01:28:59.132Z,18.55
2022-09-15T01:29:59.085Z,18.55
2022-09-15T01:30:59.071Z,18.55
2022-09-15T01:31:59.083Z,18.57
2022-09-15T01:32:59.084Z,18.55
2022-09-15T01:33:59.052Z,18.57
2022-09-15T01:34:59.037Z,18.55
2022-09-15T01:35:59.008Z,18.57
2022-09-15T01:36:58.996Z,18.57
2022-09-15T01:37:59.007Z,18.55
2022-09-15T01:38:58.969Z,18.57
2022-09-15T01:39:59.029Z,18.57
2022-09-15T01:40:58.937Z,18.55
2022-09-15T01:41:59.766Z,18.58
2022-09-15T01:42:58.921Z,18.58
2022-09-15T01:43:58.911Z,18.60
2022-09-15T01:44:58.918Z,18.63
2022-09-15T01:45:58.926Z,18.63
2022-09-15T01:46:58.857Z,18.63
2022-09-15T01:47:58.854Z,18.62
2022-09-15T01:48:58.851Z,18.62
2022-09-15T01:49:58.857Z,18.62
2022-09-15T01:50:58.840Z,18.63
2022-09-15T01:51:58.806Z,18.60
2022-09-15T01:52:58.797Z,18.63
2022-09-15T01:53:58.768Z,18.62
2022-09-15T01:54:58.767Z,18.63
2022-09-15T01:55:58.740Z,18.65
2022-09-15T01:56:58.747Z,18.65
2022-09-15T01:57:58.733Z,18.66
2022-09-15T01:58:58.707Z,18.66
2022-09-15T01:59:58.694Z,18.66
2022-09-15T02:00:58.723Z,18.66
2022-09-15T02:01:58.711Z,18.67
2022-09-15T02:02:58.650Z,18.67
2022-09-15T02:03:58.678Z,18.67
2022-09-15T02:04:58.609Z,18.66
2022-09-15T02:05:58.630Z,18.67
2022-09-15T02:06:58.589Z,18.66
2022-09-15T02:07:58.579Z,18.67
2022-09-15T02:08:58.581Z,18.66
2022-09-15T02:09:58.558Z,18.67
2022-09-15T02:10:58.587Z,18.67
2022-09-15T02:11:58.522Z,18.69
2022-09-15T02:12:58.524Z,18.69
2022-09-15T02:13:58.641Z,18.69
2022-09-15T02:14:58.496Z,18.70
2022-09-15T02:15:58.525Z,18.70
2022-09-15T02:16:58.458Z,18.69
2022-09-15T02:17:58.467Z,18.70
2022-09-15T02:18:58.469Z,18.69
2022-09-15T02:19:58.424Z,18.67
2022-09-15T02:20:58.414Z,18.67
2022-09-15T02:21:58.399Z,18.69
2022-09-15T02:22:58.392Z,18.70
2022-09-15T02:23:58.370Z,18.70
2022-09-15T02:24:58.363Z,18.70
2022-09-15T02:25:58.364Z,18.69
2022-09-15T02:26:58.350Z,18.69
2022-09-15T02:27:58.332Z,18.69
2022-09-15T02:28:58.318Z,18.67
2022-09-15T02:29:58.305Z,18.69
2022-09-15T02:30:58.268Z,18.70
2022-09-15T02:31:58.334Z,18.70
2022-09-15T02:32:58.245Z,18.70
2022-09-15T02:33:58.261Z,18.70
2022-09-15T02:34:58.209Z,18.70
2022-09-15T02:35:58.239Z,18.70
2022-09-15T02:36:58.192Z,18.70
2022-09-15T02:37:58.205Z,18.70
2022-09-15T02:38:58.161Z,18.69
2022-09-15T02:39:58.310Z,18.67
2022-09-15T02:40:58.140Z,18.67
2022-09-15T02:41:58.125Z,18.67
2022-09-15T02:42:58.174Z,18.67
2022-09-15T02:43:58.133Z,18.67
2022-09-15T02:44:58.090Z,18.69
2022-09-15T02:45:58.094Z,18.69
2022-09-15T02:46:58.063Z,18.66
2022-09-15T02:47:58.044Z,18.69
2022-09-15T02:48:58.062Z,18.69
2022-09-15T02:49:58.019Z,18.66
2022-09-15T02:50:58.671Z,18.66
2022-09-15T02:51:57.983Z,18.65
2022-09-15T02:52:58.022Z,18.66
2022-09-15T02:53:57.962Z,18.66
2022-09-15T02:54:57.954Z,18.63
2022-09-15T02:55:57.953Z,18.63
2022-09-15T02:56:57.938Z,18.62
2022-09-15T02:57:57.950Z,18.63
2022-09-15T02:58:57.899Z,18.63
2022-09-15T02:59:57.895Z,18.62
2022-09-15T03:00:57.943Z,18.62
2022-09-15T03:01:58.021Z,18.63
2022-09-15T03:02:57.871Z,18.62
2022-09-15T03:03:57.843Z,18.65
2022-09-15T03:04:57.854Z,18.63
2022-09-15T03:05:57.832Z,18.65
2022-09-15T03:06:57.826Z,18.62
2022-09-15T03:07:57.793Z,18.62
2022-09-15T03:08:57.761Z,18.63
2022-09-15T03:09:57.744Z,18.63
2022-09-15T03:10:57.770Z,18.65
2022-09-15T03:11:57.791Z,18.63
2022-09-15T03:12:57.735Z,18.65
2022-09-15T03:13:57.728Z,18.66
2022-09-15T03:14:57.705Z,18.67
2022-09-15T03:15:57.738Z,18.67
2022-09-15T03:16:57.738Z,18.66
2022-09-15T03:17:57.647Z,18.67
2022-09-15T03:18:57.626Z,18.66
2022-09-15T03:19:57.632Z,18.66
2022-09-15T03:20:57.596Z,18.66
2022-09-15T03:21:57.622Z,18.66
2022-09-15T03:22:57.602Z,18.69
2022-09-15T03:23:57.581Z,18.67
2022-09-15T03:24:57.567Z,18.66
2022-09-15T03:25:57.538Z,18.66
2022-09-15T03:26:57.521Z,18.67
2022-09-15T03:27:57.547Z,18.67
2022-09-15T03:28:57.525Z,18.67
2022-09-15T03:29:57.491Z,18.65
2022-09-15T03:30:57.604Z,18.63
2022-09-15T03:31:57.498Z,18.66
2022-09-15T03:32:57.451Z,18.67
2022-09-15T03:33:57.424Z,18.65
2022-09-15T03:34:58.495Z,18.66
2022-09-15T03:35:57.761Z,18.65
2022-09-15T03:36:57.394Z,18.65
2022-09-15T03:37:57.410Z,18.65
2022-09-15T03:38:57.365Z,18.63
2022-09-15T03:39:57.395Z,18.63
2022-09-15T03:40:57.339Z,18.63
2022-09-15T03:41:57.316Z,18.62
2022-09-15T03:42:57.364Z,18.62
2022-09-15T03:43:57.372Z,18.62
2022-09-15T03:44:57.312Z,18.65
2022-09-15T03:45:57.455Z,18.62
2022-09-15T03:46:57.273Z,18.62
2022-09-15T03:47:57.245Z,18.62
2022-09-15T03:48:57.282Z,18.60
2022-09-15T03:49:57.260Z,18.62
2022-09-15T03:50:57.206Z,18.60
2022-09-15T03:51:57.192Z,18.62
2022-09-15T03:52:58.874Z,18.62
2022-09-15T03:53:57.171Z,18.62
2022-09-15T03:54:57.182Z,18.62
2022-09-15T03:55:57.164Z,18.62
2022-09-15T03:56:57.119Z,18.60
2022-09-15T03:57:57.127Z,18.63
2022-09-15T03:58:57.146Z,18.62
2022-09-15T03:59:57.087Z,18.63
2022-09-15T04:00:57.162Z,18.63
2022-09-15T04:01:57.165Z,18.65
2022-09-15T04:02:57.065Z,18.65
2022-09-15T04:03:57.052Z,18.63
2022-09-15T04:04:57.031Z,18.65
2022-09-15T04:05:57.018Z,18.63
2022-09-15T04:06:57.159Z,18.63
2022-09-15T04:07:56.980Z,18.63
2022-09-15T04:08:56.969Z,18.65
2022-09-15T04:09:56.962Z,18.63
2022-09-15T04:10:56.995Z,18.63
2022-09-15T04:11:56.966Z,18.62
2022-09-15T04:12:57.208Z,18.62
2022-09-15T04:13:56.905Z,18.63
2022-09-15T04:14:56.933Z,18.60
2022-09-15T04:15:56.963Z,18.57
2022-09-15T04:16:56.868Z,18.55
2022-09-15T04:17:56.879Z,18.57
2022-09-15T04:18:56.849Z,18.57
2022-09-15T04:19:56.814Z,18.57
2022-09-15T04:20:56.807Z,18.57
2022-09-15T04:21:56.812Z,18.57
2022-09-15T04:22:56.788Z,18.57
2022-09-15T04:23:56.760Z,18.57
2022-09-15T04:24:56.749Z,18.57
2022-09-15T04:25:56.759Z,18.55
2022-09-15T04:26:56.725Z,18.55
2022-09-15T04:27:56.737Z,18.55
2022-09-15T04:28:58.710Z,18.54
2022-09-15T04:29:56.684Z,18.52
2022-09-15T04:30:56.717Z,18.52
2022-09-15T04:31:56.806Z,18.51
2022-09-15T04:32:56.640Z,18.51
2022-09-15T04:33:56.672Z,18.48
2022-09-15T04:34:56.605Z,18.47
2022-09-15T04:35:56.708Z,18.45
2022-09-15T04:36:56.601Z,18.45
2022-09-15T04:37:56.599Z,18.44
2022-09-15T04:38:56.583Z,18.42
2022-09-15T04:39:56.641Z,18.44
2022-09-15T04:40:56.547Z,18.42
2022-09-15T04:41:56.526Z,18.44
2022-09-15T04:42:56.545Z,18.42
2022-09-15T04:43:56.518Z,18.41
2022-09-15T04:44:56.523Z,18.41
2022-09-15T04:45:56.478Z,18.41
2022-09-15T04:46:56.542Z,18.39
2022-09-15T04:47:56.444Z,18.37
2022-09-15T04:48:56.452Z,18.36
2022-09-15T04:49:56.424Z,18.36
2022-09-15T04:50:56.456Z,18.36
2022-09-15T04:51:56.401Z,18.36
2022-09-15T04:52:56.392Z,18.37
2022-09-15T04:53:56.394Z,18.37
2022-09-15T04:54:56.363Z,18.35
2022-09-15T04:55:56.376Z,18.36
2022-09-15T04:56:56.341Z,18.36
2022-09-15T04:57:56.310Z,18.33
2022-09-15T04:59:00.940Z,18.33
2022-09-15T04:59:56.331Z,18.33
2022-09-15T05:00:56.303Z,18.33
2022-09-15T05:01:56.364Z,18.33
2022-09-15T05:02:56.299Z,18.33
2022-09-15T05:03:56.241Z,18.32
2022-09-15T05:04:56.743Z,18.30
2022-09-15T05:05:56.202Z,18.29
2022-09-15T05:06:56.206Z,18.29
2022-09-15T05:07:56.185Z,18.29
2022-09-15T05:08:56.175Z,18.29
2022-09-15T05:09:56.170Z,18.29
2022-09-15T05:10:56.140Z,18.29
2022-09-15T05:11:56.773Z,18.29
2022-09-15T05:12:56.133Z,18.27
2022-09-15T05:13:56.110Z,18.27
2022-09-15T05:14:56.110Z,18.27
2022-09-15T05:15:56.132Z,18.27
2022-09-15T05:16:56.680Z,18.27
2022-09-15T05:17:56.056Z,18.29
2022-09-15T05:18:56.019Z,18.26
2022-09-15T05:19:56.044Z,18.26
2022-09-15T05:20:56.013Z,18.27
2022-09-15T05:21:55.987Z,18.26
2022-09-15T05:22:56.024Z,18.27
2022-09-15T05:23:55.959Z,18.29
2022-09-15T05:24:56.064Z,18.27
2022-09-15T05:25:55.956Z,18.27
2022-09-15T05:26:55.967Z,18.26
2022-09-15T05:27:55.936Z,18.26
2022-09-15T05:28:55.926Z,18.26
2022-09-15T05:30:16.125Z,18.27
2022-09-15T05:30:55.944Z,18.29
2022-09-15T05:31:55.943Z,18.27
2022-09-15T05:32:55.881Z,18.30
2022-09-15T05:33:55.910Z,18.27
2022-09-15T05:34:55.875Z,18.30
2022-09-15T05:35:55.841Z,18.27
2022-09-15T05:36:55.816Z,18.30
2022-09-15T05:37:55.804Z,18.30
2022-09-15T05:38:55.808Z,18.30
2022-09-15T05:39:55.792Z,18.30
2022-09-15T05:40:55.746Z,18.30
2022-09-15T05:41:55.757Z,18.30
2022-09-15T05:42:56.226Z,18.29
2022-09-15T05:43:55.686Z,18.29
2022-09-15T05:44:55.712Z,18.30
2022-09-15T05:45:55.705Z,18.30
2022-09-15T05:46:55.724Z,18.30
2022-09-15T05:47:55.666Z,18.29
2022-09-15T05:48:55.627Z,18.29
2022-09-15T05:49:55.655Z,18.30
2022-09-15T05:50:55.670Z,18.29
2022-09-15T05:51:55.611Z,18.29
2022-09-15T05:52:55.580Z,18.30
2022-09-15T05:53:55.555Z,18.29
2022-09-15T05:54:59.020Z,18.29
2022-09-15T05:55:55.558Z,18.29
2022-09-15T05:56:55.568Z,18.30
2022-09-15T05:57:55.539Z,18.30
2022-09-15T05:58:55.531Z,18.30
2022-09-15T05:59:55.500Z,18.29
2022-09-15T06:00:55.463Z,18.30
2022-09-15T06:01:55.522Z,18.29
2022-09-15T06:02:55.558Z,18.29
2022-09-15T06:03:55.443Z,18.27
2022-09-15T06:04:55.410Z,18.27
2022-09-15T06:05:55.420Z,18.26
2022-09-15T06:06:55.395Z,18.27
2022-09-15T06:07:55.397Z,18.29
2022-09-15T06:08:57.993Z,18.26
2022-09-15T06:09:55.355Z,18.26
2022-09-15T06:10:55.333Z,18.27
2022-09-15T06:11:55.746Z,18.26
2022-09-15T06:12:55.841Z,18.25
2022-09-15T06:13:55.323Z,18.23
2022-09-15T06:14:55.398Z,18.23
2022-09-15T06:15:55.286Z,18.23
2022-09-15T06:16:55.297Z,18.21
2022-09-15T06:17:55.231Z,18.20
2022-09-15T06:18:55.234Z,18.20
2022-09-15T06:19:55.229Z,18.21
2022-09-15T06:20:55.206Z,18.21
2022-09-15T06:21:55.246Z,18.20
2022-09-15T06:22:55.184Z,18.21
2022-09-15T06:23:55.323Z,18.20
2022-09-15T06:24:55.213Z,18.18
2022-09-15T06:25:55.150Z,18.17
2022-09-15T06:26:55.127Z,18.18
2022-09-15T06:27:55.135Z,18.20
2022-09-15T06:28:55.114Z,18.17
2022-09-15T06:29:55.086Z,18.17
2022-09-15T06:30:55.088Z,18.17
2022-09-15T06:31:55.144Z,18.17
2022-09-15T06:32:55.058Z,18.18
2022-09-15T06:33:55.115Z,18.18
2022-09-15T06:34:55.067Z,18.17
2022-09-15T06:35:55.016Z,18.17
2022-09-15T06:36:54.992Z,18.15
2022-09-15T06:37:54.988Z,18.15
2022-09-15T06:38:55.028Z,18.15
2022-09-15T06:39:55.037Z,18.18
2022-09-15T06:40:54.934Z,18.17
2022-09-15T06:42:03.727Z,18.15
2022-09-15T06:42:54.906Z,18.17
2022-09-15T06:43:54.906Z,18.15
2022-09-15T06:44:54.912Z,18.15
2022-09-15T06:45:54.896Z,18.15
2022-09-15T06:46:54.907Z,18.15
2022-09-15T06:48:20.345Z,18.14
2022-09-15T06:48:54.864Z,18.14
2022-09-15T06:49:54.818Z,18.15
2022-09-15T06:50:54.832Z,18.15
2022-09-15T06:51:54.809Z,18.17
2022-09-15T06:52:54.783Z,18.17
2022-09-15T06:53:54.745Z,18.17
2022-09-15T06:54:54.751Z,18.18
2022-09-15T06:55:54.747Z,18.15
2022-09-15T06:56:54.751Z,18.17
2022-09-15T06:57:54.692Z,18.14
2022-09-15T06:58:54.678Z,18.15
2022-09-15T06:59:54.718Z,18.15
2022-09-15T07:00:54.684Z,18.14
2022-09-15T07:01:54.774Z,18.14
2022-09-15T07:02:54.809Z,18.15
2022-09-15T07:03:54.621Z,18.12
2022-09-15T07:04:54.732Z,18.10
2022-09-15T07:05:54.612Z,18.10
2022-09-15T07:06:54.581Z,18.11
2022-09-15T07:07:54.559Z,18.10
2022-09-15T07:08:54.644Z,18.11
2022-09-15T07:09:54.542Z,18.10
2022-09-15T07:10:54.516Z,18.11
2022-09-15T07:11:54.788Z,18.10
2022-09-15T07:12:54.506Z,18.11
2022-09-15T07:13:54.506Z,18.11
2022-09-15T07:14:54.537Z,18.08
2022-09-15T07:15:54.516Z,18.05
2022-09-15T07:16:54.508Z,18.07
2022-09-15T07:17:54.414Z,18.08
2022-09-15T07:18:54.455Z,18.08
2022-09-15T07:19:54.476Z,18.10
2022-09-15T07:20:54.388Z,18.10
2022-09-15T07:21:54.360Z,18.10
2022-09-15T07:22:54.429Z,18.08
2022-09-15T07:23:54.447Z,18.07
2022-09-15T07:24:54.411Z,18.07
2022-09-15T07:25:54.326Z,18.07
2022-09-15T07:26:54.302Z,18.07
2022-09-15T07:27:54.342Z,18.05
2022-09-15T07:28:54.285Z,18.07
2022-09-15T07:29:54.303Z,18.05
2022-09-15T07:30:54.314Z,18.05
2022-09-15T07:31:54.333Z,18.07
2022-09-15T07:32:54.238Z,18.07
2022-09-15T07:33:54.215Z,18.07
2022-09-15T07:34:58.118Z,18.10
2022-09-15T07:35:54.175Z,18.07
2022-09-15T07:36:54.190Z,18.07
2022-09-15T07:37:54.153Z,18.07
2022-09-15T07:38:54.171Z,18.08
2022-09-15T07:39:54.190Z,18.10
2022-09-15T07:40:54.158Z,18.08
2022-09-15T07:41:54.104Z,18.08
2022-09-15T07:42:54.116Z,18.07
2022-09-15T07:43:54.089Z,18.07
2022-09-15T07:44:54.122Z,18.07
2022-09-15T07:45:54.101Z,18.02
2022-09-15T07:46:54.092Z,17.99
2022-09-15T07:47:54.025Z,17.62
2022-09-15T07:48:54.086Z,17.46
2022-09-15T07:49:54.028Z,17.08
2022-09-15T07:50:53.992Z,16.81
2022-09-15T07:51:53.993Z,16.57
2022-09-15T07:52:53.997Z,16.31
2022-09-15T07:53:54.050Z,16.07
2022-09-15T07:54:53.936Z,15.96
2022-09-15T07:55:53.930Z,15.87
2022-09-15T07:56:53.902Z,15.83
2022-09-15T07:57:53.901Z,15.83
2022-09-15T07:58:53.899Z,15.83
2022-09-15T07:59:53.852Z,15.72
2022-09-15T08:00:53.898Z,15.59
2022-09-15T08:01:53.930Z,15.53
2022-09-15T08:02:53.832Z,15.49
2022-09-15T08:03:54.004Z,15.46
2022-09-15T08:04:53.813Z,15.44
2022-09-15T08:05:53.783Z,15.43
2022-09-15T08:06:53.772Z,15.35
2022-09-15T08:07:53.779Z,15.27
2022-09-15T08:08:59.264Z,15.23
2022-09-15T08:09:53.748Z,15.21
2022-09-15T08:10:53.788Z,15.21
2022-09-15T08:11:53.764Z,15.23
2022-09-15T08:12:53.710Z,15.21
2022-09-15T08:13:53.690Z,15.25
2022-09-15T08:14:53.650Z,15.27
2022-09-15T08:15:53.754Z,15.29
2022-09-15T08:16:53.674Z,15.31
2022-09-15T08:17:53.617Z,15.28
2022-09-15T08:18:53.848Z,15.20
2022-09-15T08:19:53.636Z,15.16
2022-09-15T08:20:53.605Z,15.14
2022-09-15T08:21:53.584Z,15.11
2022-09-15T08:22:53.569Z,15.13
2022-09-15T08:23:53.624Z,15.11
2022-09-15T08:24:53.543Z,15.09
2022-09-15T08:25:53.516Z,15.07
2022-09-15T08:26:53.544Z,15.10
2022-09-15T08:27:53.500Z,15.13
2022-09-15T08:28:53.697Z,15.13
2022-09-15T08:29:53.461Z,15.02
2022-09-15T08:30:53.493Z,14.98
2022-09-15T08:31:53.440Z,14.95
2022-09-15T08:32:53.460Z,14.94
2022-09-15T08:33:53.440Z,14.92
2022-09-15T08:34:53.391Z,14.91
2022-09-15T08:35:53.373Z,14.88
2022-09-15T08:36:53.378Z,14.88
2022-09-15T08:37:53.367Z,14.83
2022-09-15T08:38:53.363Z,14.83
2022-09-15T08:39:53.378Z,14.81
2022-09-15T08:40:53.306Z,14.80
2022-09-15T08:41:53.297Z,14.83
2022-09-15T08:42:53.319Z,14.83
2022-09-15T08:43:53.593Z,14.81
2022-09-15T08:44:53.269Z,14.88
2022-09-15T08:45:53.245Z,14.88
2022-09-15T08:46:53.334Z,14.86
2022-09-15T08:47:53.236Z,14.89
2022-09-15T08:48:53.301Z,14.92
2022-09-15T08:49:53.209Z,14.94
2022-09-15T08:50:53.200Z,14.94
2022-09-15T08:51:53.166Z,14.91
2022-09-15T08:52:53.173Z,14.86
2022-09-15T08:53:53.182Z,14.83
2022-09-15T08:54:53.185Z,14.89
2022-09-15T08:55:53.141Z,14.88
2022-09-15T08:56:53.126Z,14.84
2022-09-15T08:57:53.102Z,14.81
2022-09-15T08:58:53.176Z,14.77
2022-09-15T08:59:53.092Z,14.78
2022-09-15T09:00:53.095Z,14.80
2022-09-15T09:01:53.081Z,14.83
2022-09-15T09:02:53.152Z,14.83
2022-09-15T09:03:52.995Z,14.81
2022-09-15T09:04:53.029Z,14.81
2022-09-15T09:05:52.995Z,14.86
2022-09-15T09:06:52.989Z,14.88
2022-09-15T09:07:52.957Z,14.81
2022-09-15T09:08:53.088Z,14.80
2022-09-15T09:09:52.935Z,14.80
2022-09-15T09:10:52.978Z,14.80
2022-09-15T09:11:52.924Z,14.84
2022-09-15T09:12:52.883Z,14.83
2022-09-15T09:13:52.947Z,14.80
2022-09-15T09:14:52.865Z,14.88
2022-09-15T09:15:52.976Z,14.95
2022-09-15T09:16:52.850Z,15.03
2022-09-15T09:17:52.831Z,15.01
2022-09-15T09:18:52.828Z,14.99
2022-09-15T09:19:52.800Z,14.95
2022-09-15T09:20:52.813Z,14.91
2022-09-15T09:21:52.769Z,14.88
2022-09-15T09:22:52.747Z,14.86
2022-09-15T09:23:52.874Z,14.80
2022-09-15T09:24:52.747Z,14.69
2022-09-15T09:25:52.728Z,14.64
2022-09-15T09:26:52.728Z,14.57
2022-09-15T09:27:52.697Z,14.58
2022-09-15T09:28:52.680Z,14.57
2022-09-15T09:29:52.693Z,14.55
2022-09-15T09:30:52.686Z,14.55
2022-09-15T09:31:52.668Z,14.55
2022-09-15T09:32:52.622Z,14.55
2022-09-15T09:33:52.602Z,14.58
2022-09-15T09:34:52.629Z,14.58
2022-09-15T09:35:52.597Z,14.61
2022-09-15T09:36:52.575Z,14.69
2022-09-15T09:37:52.573Z,14.69
2022-09-15T09:38:52.544Z,14.68
2022-09-15T09:39:52.618Z,14.68
2022-09-15T09:40:52.535Z,14.73
2022-09-15T09:41:52.546Z,14.70
2022-09-15T09:42:52.513Z,14.72
2022-09-15T09:43:52.620Z,14.73
2022-09-15T09:44:52.452Z,14.75
2022-09-15T09:45:52.483Z,14.70
2022-09-15T09:46:52.454Z,14.68
2022-09-15T09:47:52.461Z,14.70
2022-09-15T09:48:52.421Z,14.70
2022-09-15T09:49:52.389Z,14.65
2022-09-15T09:50:52.377Z,14.65
2022-09-15T09:51:52.363Z,14.64
2022-09-15T09:52:52.382Z,14.65
2022-09-15T09:53:52.561Z,14.68
2022-09-15T09:54:52.336Z,14.69
2022-09-15T09:55:52.329Z,14.68
2022-09-15T09:56:52.301Z,14.69
2022-09-15T09:57:52.327Z,14.70
2022-09-15T09:58:52.284Z,14.69
2022-09-15T09:59:52.303Z,14.72
2022-09-15T10:00:52.266Z,14.78
2022-09-15T10:01:52.281Z,14.80
2022-09-15T10:02:52.214Z,14.81
2022-09-15T10:03:52.237Z,14.83
2022-09-15T10:04:52.277Z,14.84
2022-09-15T10:05:52.193Z,14.92
2022-09-15T10:06:52.271Z,14.89
2022-09-15T10:07:52.175Z,14.86
2022-09-15T10:08:52.284Z,14.80
2022-09-15T10:09:52.144Z,14.77
2022-09-15T10:10:52.136Z,14.73
2022-09-15T10:11:52.091Z,14.78
2022-09-15T10:12:52.076Z,14.80
2022-09-15T10:13:52.084Z,14.81
2022-09-15T10:14:52.640Z,14.83
2022-09-15T10:15:52.252Z,14.84
2022-09-15T10:16:52.143Z,14.89
2022-09-15T10:17:52.052Z,14.81
2022-09-15T10:18:54.449Z,14.88
2022-09-15T10:19:51.999Z,14.92
2022-09-15T10:20:52.023Z,14.94
2022-09-15T10:21:52.132Z,14.94
2022-09-15T10:22:51.942Z,14.94
2022-09-15T10:23:52.290Z,14.99
2022-09-15T10:24:51.927Z,15.07
2022-09-15T10:26:00.369Z,15.13
2022-09-15T10:26:51.901Z,15.19
2022-09-15T10:27:51.895Z,15.25
2022-09-15T10:28:51.892Z,15.27
2022-09-15T10:29:51.881Z,15.25
2022-09-15T10:30:51.883Z,15.28
2022-09-15T10:31:51.892Z,15.29
2022-09-15T10:32:52.676Z,15.35
2022-09-15T10:33:51.825Z,15.41
2022-09-15T10:34:51.792Z,15.46
2022-09-15T10:35:51.800Z,15.50
2022-09-15T10:36:51.784Z,15.56
2022-09-15T10:37:51.756Z,15.59
2022-09-15T10:38:51.937Z,15.59
2022-09-15T10:39:51.806Z,15.59
2022-09-15T10:40:51.714Z,15.56
2022-09-15T10:41:51.697Z,15.56
2022-09-15T10:42:51.701Z,15.50
2022-09-15T10:43:51.699Z,15.39
2022-09-15T10:44:52.115Z,15.38
2022-09-15T10:45:51.699Z,15.43
2022-09-15T10:46:51.637Z,15.51
2022-09-15T10:47:51.639Z,15.57
2022-09-15T10:48:51.595Z,15.64
2022-09-15T10:49:51.596Z,15.69
2022-09-15T10:50:51.590Z,15.75
2022-09-15T10:51:51.580Z,15.75
2022-09-15T10:52:51.569Z,15.75
2022-09-15T10:53:55.605Z,15.75
2022-09-15T10:54:51.534Z,15.75
2022-09-15T10:55:53.242Z,15.75
2022-09-15T10:56:51.497Z,15.76
2022-09-15T10:57:51.523Z,15.78
2022-09-15T10:58:51.516Z,15.83
2022-09-15T10:59:51.463Z,15.84
2022-09-15T11:00:51.456Z,15.80
2022-09-15T11:01:51.525Z,15.78
2022-09-15T11:02:51.434Z,15.82
2022-09-15T11:03:51.411Z,15.87
2022-09-15T11:04:51.421Z,15.87
2022-09-15T11:05:51.428Z,15.92
2022-09-15T11:06:52.220Z,15.92
2022-09-15T11:07:51.370Z,15.94
2022-09-15T11:08:51.465Z,15.92
2022-09-15T11:09:51.368Z,15.89
2022-09-15T11:10:51.330Z,15.83
2022-09-15T11:11:51.337Z,15.80
2022-09-15T11:12:51.290Z,15.84
2022-09-15T11:13:51.277Z,15.89
2022-09-15T11:14:51.284Z,15.93
2022-09-15T11:15:51.326Z,15.92
2022-09-15T11:16:51.236Z,15.96
2022-09-15T11:17:51.241Z,16.01
2022-09-15T11:18:51.212Z,15.96
2022-09-15T11:19:51.194Z,15.96
2022-09-15T11:20:51.207Z,15.94
2022-09-15T11:21:51.160Z,15.92
2022-09-15T11:22:51.215Z,15.92
2022-09-15T11:23:51.287Z,16.01
2022-09-15T11:24:51.136Z,16.05
2022-09-15T11:25:51.142Z,16.09
2022-09-15T11:26:51.133Z,16.09
2022-09-15T11:27:51.114Z,16.14
2022-09-15T11:28:51.064Z,16.17
2022-09-15T11:29:51.059Z,16.14
2022-09-15T11:30:51.035Z,16.15
2022-09-15T11:31:51.321Z,16.20
2022-09-15T11:32:52.976Z,16.23
2022-09-15T11:33:51.189Z,16.24
2022-09-15T11:34:50.997Z,16.28
2022-09-15T11:35:50.971Z,16.34
2022-09-15T11:36:51.011Z,16.39
2022-09-15T11:37:50.964Z,16.45
2022-09-15T11:38:50.951Z,16.42
2022-09-15T11:39:50.946Z,16.41
2022-09-15T11:40:50.937Z,16.39
2022-09-15T11:41:50.911Z,16.41
2022-09-15T11:42:50.926Z,16.34
2022-09-15T11:43:50.899Z,16.31
2022-09-15T11:44:50.899Z,16.34
2022-09-15T11:45:50.858Z,16.35
2022-09-15T11:46:50.896Z,16.42
2022-09-15T11:47:50.835Z,16.48
2022-09-15T11:48:50.840Z,16.49
2022-09-15T11:49:50.843Z,16.53
2022-09-15T11:50:50.787Z,16.57
2022-09-15T11:51:50.776Z,16.56
2022-09-15T11:52:50.770Z,16.60
2022-09-15T11:53:50.765Z,16.58
2022-09-15T11:54:50.732Z,16.61
2022-09-15T11:55:50.710Z,16.70
2022-09-15T11:56:50.722Z,16.75
2022-09-15T11:57:50.711Z,16.81
2022-09-15T11:58:50.684Z,16.85
2022-09-15T11:59:50.675Z,16.91
2022-09-15T12:00:50.649Z,17.00
2022-09-15T12:01:50.727Z,17.00
2022-09-15T12:02:50.674Z,16.98
2022-09-15T12:03:50.612Z,17.01
2022-09-15T12:04:50.611Z,17.07
2022-09-15T12:05:50.580Z,17.07
2022-09-15T12:06:50.673Z,17.12
2022-09-15T12:07:50.624Z,17.19
2022-09-15T12:08:50.584Z,17.26
2022-09-15T12:09:50.516Z,17.33
2022-09-15T12:10:50.526Z,17.30
2022-09-15T12:11:50.510Z,17.31
2022-09-15T12:12:50.560Z,17.33
2022-09-15T12:13:50.496Z,17.36
2022-09-15T12:14:50.487Z,17.37
2022-09-15T12:15:50.867Z,17.36
2022-09-15T12:16:50.474Z,17.33
2022-09-15T12:17:50.429Z,17.36
2022-09-15T12:18:50.424Z,17.38
2022-09-15T12:19:50.407Z,17.46
2022-09-15T12:20:50.387Z,17.56
2022-09-15T12:21:50.383Z,17.56
2022-09-15T12:22:50.342Z,17.62
2022-09-15T12:23:50.336Z,17.64
2022-09-15T12:24:50.439Z,17.63
2022-09-15T12:25:50.465Z,17.56
2022-09-15T12:26:50.358Z,17.51
2022-09-15T12:27:50.280Z,17.48
2022-09-15T12:28:50.336Z,17.49
2022-09-15T12:29:50.265Z,17.56
2022-09-15T12:30:50.252Z,17.62
2022-09-15T12:31:50.253Z,17.62
2022-09-15T12:32:50.252Z,17.64
2022-09-15T12:33:50.549Z,17.70
2022-09-15T12:34:50.205Z,17.75
2022-09-15T12:35:50.182Z,17.81
2022-09-15T12:36:50.228Z,17.90
2022-09-15T12:37:50.164Z,17.90
2022-09-15T12:38:50.123Z,17.90
2022-09-15T12:39:50.190Z,17.90
2022-09-15T12:40:50.128Z,17.92
2022-09-15T12:41:50.097Z,17.90
2022-09-15T12:42:50.185Z,17.92
2022-09-15T12:43:50.064Z,17.95
2022-09-15T12:44:50.120Z,17.93
2022-09-15T12:45:50.050Z,17.93
2022-09-15T12:46:50.153Z,17.89
2022-09-15T12:47:50.015Z,17.84
2022-09-15T12:48:50.033Z,17.87
2022-09-15T12:49:49.998Z,17.92
2022-09-15T12:50:49.983Z,17.90
2022-09-15T12:51:49.993Z,17.90